createdAt,value
2023-03-06T00:01:43.923Z,26.25
2023-03-06T00:04:21.725Z,24.55
2023-03-06T00:06:51.810Z,25.50
2023-03-06T00:09:19.491Z,29.08
2023-03-06T00:11:52.571Z,33.00
2023-03-06T00:14:22.553Z,32.90
2023-03-06T00:16:50.186Z,33.83
2023-03-06T00:19:21.843Z,33.38
2023-03-06T00:21:49.274Z,30.08
2023-03-06T00:24:19.556Z,36.58
2023-03-06T00:26:54.395Z,37.25
2023-03-06T00:29:23.718Z,36.22
2023-03-06T00:31:54.103Z,35.88
2023-03-06T00:34:26.554Z,35.67
2023-03-06T00:37:01.514Z,35.80
2023-03-06T00:39:38.583Z,36.10
2023-03-06T00:42:21.601Z,37.15
2023-03-06T00:44:49.015Z,35.33
2023-03-06T00:47:20.930Z,31.02
2023-03-06T00:49:48.359Z,31.05
2023-03-06T00:52:16.944Z,32.53
2023-03-06T00:54:44.545Z,31.15
2023-03-06T00:57:12.068Z,30.27
2023-03-06T00:59:45.922Z,29.63
2023-03-06T01:02:37.142Z,33.17
2023-03-06T01:05:04.808Z,31.05
2023-03-06T01:07:39.545Z,30.17
2023-03-06T01:10:10.789Z,30.13
2023-03-06T01:12:43.550Z,31.17
2023-03-06T01:15:13.444Z,31.63
2023-03-06T01:17:47.592Z,33.15
2023-03-06T01:20:18.237Z,31.40
2023-03-06T01:22:45.756Z,32.17
2023-03-06T01:25:16.006Z,28.38
2023-03-06T01:27:43.572Z,29.27
2023-03-06T01:32:41.005Z,24.17
2023-03-06T01:35:16.418Z,20.65
2023-03-06T01:37:49.111Z,21.70
2023-03-06T01:40:16.744Z,20.67
2023-03-06T01:42:48.597Z,19.38
2023-03-06T01:45:34.672Z,18.35
2023-03-06T01:48:05.014Z,16.23
2023-03-06T01:50:42.900Z,14.43
2023-03-06T01:53:13.809Z,13.38
2023-03-06T01:55:42.713Z,13.27
2023-03-06T01:58:18.241Z,14.40
2023-03-06T02:00:45.770Z,12.65
2023-03-06T02:03:14.974Z,12.73
2023-03-06T02:05:49.658Z,13.82
2023-03-06T02:08:21.328Z,14.07
2023-03-06T02:10:58.041Z,14.95
2023-03-06T02:13:27.860Z,13.35
2023-03-06T02:15:55.424Z,15.52
2023-03-06T02:18:25.103Z,16.60
2023-03-06T02:21:06.828Z,15.90
2023-03-06T02:23:42.391Z,15.30
2023-03-06T02:26:12.231Z,15.95
2023-03-06T02:28:41.662Z,17.85
2023-03-06T02:31:13.818Z,16.92
2023-03-06T02:33:43.044Z,15.32
2023-03-06T02:36:14.359Z,16.60
2023-03-06T02:38:48.480Z,16.70
2023-03-06T02:41:20.253Z,15.90
2023-03-06T02:43:52.685Z,18.45
2023-03-06T02:46:23.616Z,17.70
2023-03-06T02:48:54.859Z,17.20
2023-03-06T02:51:28.350Z,19.10
2023-03-06T02:53:55.915Z,18.50
2023-03-06T02:56:24.627Z,17.98
2023-03-06T02:59:00.729Z,17.90
2023-03-06T03:01:29.123Z,19.92
2023-03-06T03:04:02.201Z,19.25
2023-03-06T03:06:31.888Z,18.95
2023-03-06T03:09:15.035Z,18.27
2023-03-06T03:11:47.027Z,20.98
2023-03-06T03:14:16.673Z,19.92
2023-03-06T03:16:46.430Z,19.05
2023-03-06T03:19:14.041Z,18.90
2023-03-06T03:24:09.402Z,14.75
2023-03-06T03:26:37.502Z,15.23
2023-03-06T03:29:20.844Z,14.93
2023-03-06T03:31:50.786Z,14.93
2023-03-06T03:34:21.175Z,14.77
2023-03-06T03:36:49.045Z,16.65
2023-03-06T03:39:20.215Z,18.52
2023-03-06T03:42:04.378Z,17.90
2023-03-06T03:44:41.247Z,20.77
2023-03-06T03:47:11.203Z,21.38
2023-03-06T03:49:42.325Z,20.52
2023-03-06T03:52:15.696Z,20.63
2023-03-06T03:54:43.195Z,20.38
2023-03-06T03:57:11.091Z,21.25
2023-03-06T03:59:49.233Z,20.65
2023-03-06T04:02:26.287Z,19.90
2023-03-06T04:05:03.309Z,20.15
2023-03-06T04:07:41.403Z,19.67
2023-03-06T04:10:19.086Z,18.75
2023-03-06T04:15:17.274Z,17.80
2023-03-06T04:17:48.378Z,18.20
2023-03-06T04:20:22.866Z,18.73
2023-03-06T04:23:02.287Z,18.95
2023-03-06T04:25:30.084Z,19.90
2023-03-06T04:27:59.246Z,18.20
2023-03-06T04:30:30.778Z,21.50
2023-03-06T04:32:58.476Z,18.50
2023-03-06T04:35:26.125Z,17.70
2023-03-06T04:38:03.024Z,19.40
2023-03-06T04:40:39.909Z,17.63
2023-03-06T04:43:17.273Z,16.25
2023-03-06T04:45:55.963Z,15.98
2023-03-06T04:48:23.700Z,16.70
2023-03-06T04:53:27.692Z,13.77
2023-03-06T04:55:57.635Z,13.57
2023-03-06T04:58:28.523Z,11.10
2023-03-06T05:00:58.503Z,10.07
2023-03-06T05:03:26.744Z,9.18
2023-03-06T05:05:59.442Z,9.57
2023-03-06T05:08:36.321Z,8.38
2023-03-06T05:11:26.889Z,8.73
2023-03-06T05:13:57.213Z,9.90
2023-03-06T05:16:28.078Z,10.30
2023-03-06T05:18:58.347Z,10.82
2023-03-06T05:21:36.046Z,10.55
2023-03-06T05:26:34.953Z,8.70
2023-03-06T05:29:02.428Z,8.93
2023-03-06T05:31:36.666Z,8.80
2023-03-06T05:34:10.728Z,8.65
2023-03-06T05:36:38.179Z,8.52
2023-03-06T05:39:08.889Z,8.65
2023-03-06T05:41:36.701Z,7.97
2023-03-06T05:44:04.378Z,9.23
2023-03-06T05:46:34.037Z,8.88
2023-03-06T05:49:01.504Z,8.32
2023-03-06T05:51:28.977Z,8.25
2023-03-06T05:54:01.149Z,8.57
2023-03-06T05:56:28.518Z,7.85
2023-03-06T05:58:58.745Z,8.63
2023-03-06T06:01:33.733Z,9.30
2023-03-06T06:04:10.095Z,9.95
2023-03-06T06:06:39.921Z,10.32
2023-03-06T06:09:07.578Z,10.65
2023-03-06T06:11:34.958Z,10.07
2023-03-06T06:14:04.890Z,11.27
2023-03-06T06:16:33.515Z,12.13
2023-03-06T06:19:01.009Z,11.35
2023-03-06T06:21:29.978Z,11.63
2023-03-06T06:23:59.581Z,14.65
2023-03-06T06:26:27.199Z,14.57
2023-03-06T06:28:54.710Z,16.17
2023-03-06T06:31:22.368Z,15.63
2023-03-06T06:33:52.286Z,16.02
2023-03-06T06:36:22.485Z,16.48
2023-03-06T06:38:54.882Z,17.20
2023-03-06T06:44:18.681Z,18.85
2023-03-06T06:49:34.183Z,24.02
2023-03-06T06:52:01.838Z,24.10
2023-03-06T06:54:30.985Z,25.02
2023-03-06T06:57:00.437Z,25.75
2023-03-06T06:59:27.972Z,25.80
2023-03-06T07:02:03.731Z,26.48
2023-03-06T07:04:31.350Z,27.50
2023-03-06T07:07:01.183Z,29.42
2023-03-06T07:09:31.589Z,28.80
2023-03-06T07:12:03.084Z,29.65
2023-03-06T07:14:30.698Z,29.42
2023-03-06T07:19:27.851Z,27.70
2023-03-06T07:21:55.299Z,30.10
2023-03-06T07:24:22.697Z,30.42
2023-03-06T07:26:50.187Z,33.90
2023-03-06T07:31:49.764Z,30.83
2023-03-06T07:34:17.231Z,32.70
2023-03-06T07:36:44.652Z,30.63
2023-03-06T07:39:21.744Z,31.73
2023-03-06T07:41:52.074Z,29.67
2023-03-06T07:44:19.857Z,30.65
2023-03-06T07:46:52.555Z,31.63
2023-03-06T07:49:22.375Z,31.83
2023-03-06T07:51:49.785Z,31.02
2023-03-06T07:54:18.627Z,32.53
2023-03-06T07:56:46.289Z,30.08
2023-03-06T07:59:13.742Z,31.35
2023-03-06T08:01:41.106Z,29.58
2023-03-06T08:04:09.993Z,24.58
2023-03-06T08:06:46.049Z,28.65
2023-03-06T08:09:19.387Z,30.35
2023-03-06T08:11:48.977Z,31.52
2023-03-06T08:14:18.881Z,31.88
2023-03-06T08:16:46.345Z,30.15
2023-03-06T08:19:15.078Z,31.40
2023-03-06T08:21:42.735Z,31.17
2023-03-06T08:24:10.254Z,30.02
2023-03-06T08:26:37.698Z,31.65
2023-03-06T08:29:05.120Z,29.23
2023-03-06T08:31:33.661Z,28.38
2023-03-06T08:34:02.278Z,30.75
2023-03-06T08:36:31.209Z,31.33
2023-03-06T08:38:59.147Z,31.75
2023-03-06T08:41:26.678Z,30.13
2023-03-06T08:43:54.197Z,31.08
2023-03-06T08:46:23.272Z,31.27
2023-03-06T08:48:50.812Z,28.23
2023-03-06T08:51:18.853Z,27.92
2023-03-06T08:53:50.722Z,27.33
2023-03-06T08:56:19.136Z,28.73
2023-03-06T08:58:46.928Z,27.60
2023-03-06T09:01:15.092Z,27.35
2023-03-06T09:03:44.315Z,28.60
2023-03-06T09:06:11.688Z,26.95
2023-03-06T09:08:43.014Z,32.10
2023-03-06T09:11:11.985Z,27.13
2023-03-06T09:13:41.434Z,28.52
2023-03-06T09:16:12.664Z,26.35
2023-03-06T09:18:42.409Z,30.42
2023-03-06T09:21:10.336Z,30.25
2023-03-06T09:23:40.914Z,30.75
2023-03-06T09:26:08.536Z,30.67
2023-03-06T09:28:38.831Z,26.92
2023-03-06T09:31:19.525Z,29.42
2023-03-06T09:33:48.538Z,27.45
2023-03-06T09:36:16.821Z,26.10
2023-03-06T09:38:45.721Z,28.35
2023-03-06T09:41:21.155Z,28.95
2023-03-06T09:43:53.061Z,28.52
2023-03-06T09:46:33.119Z,29.42
2023-03-06T09:49:10.379Z,28.95
2023-03-06T09:51:42.201Z,29.00
2023-03-06T09:54:16.356Z,29.58
2023-03-06T09:56:48.640Z,28.40
2023-03-06T09:59:22.124Z,28.73
2023-03-06T10:01:54.962Z,28.88
2023-03-06T10:04:31.453Z,28.10
2023-03-06T10:07:06.377Z,29.13
2023-03-06T10:09:39.274Z,30.13
2023-03-06T10:12:14.208Z,28.38
2023-03-06T10:14:47.688Z,27.27
2023-03-06T10:17:17.513Z,27.55
2023-03-06T10:19:47.642Z,26.95
2023-03-06T10:22:20.575Z,24.85
2023-03-06T10:24:54.386Z,25.17
2023-03-06T10:27:31.599Z,24.27
2023-03-06T10:30:13.616Z,21.02
2023-03-06T10:32:49.489Z,19.45
2023-03-06T10:35:19.024Z,17.70
2023-03-06T10:37:46.451Z,16.52
2023-03-06T10:40:15.921Z,15.50
2023-03-06T10:42:46.452Z,17.08
2023-03-06T10:45:19.084Z,15.93
2023-03-06T10:47:46.718Z,15.13
2023-03-06T10:50:30.620Z,17.20
2023-03-06T10:53:02.359Z,15.40
2023-03-06T10:55:33.218Z,14.18
2023-03-06T10:58:17.643Z,15.73
2023-03-06T11:00:46.576Z,15.32
2023-03-06T11:03:21.772Z,14.52
2023-03-06T11:06:12.657Z,12.88
2023-03-06T11:08:40.949Z,12.57
2023-03-06T11:13:40.636Z,12.02
2023-03-06T11:16:25.867Z,12.27
2023-03-06T11:21:41.439Z,12.82
2023-03-06T11:24:17.841Z,14.07
2023-03-06T11:26:51.794Z,12.98
2023-03-06T11:29:23.829Z,13.23
2023-03-06T11:32:03.608Z,15.30
2023-03-06T11:34:41.240Z,14.32
2023-03-06T11:37:16.668Z,11.38
2023-03-06T11:39:45.498Z,11.02
2023-03-06T11:42:19.593Z,9.85
2023-03-06T11:44:52.791Z,10.75
2023-03-06T11:47:30.109Z,10.07
2023-03-06T11:50:07.112Z,10.43
2023-03-06T11:52:37.981Z,9.98
2023-03-06T11:55:09.848Z,9.90
2023-03-06T11:57:54.198Z,11.05
2023-03-06T12:00:27.432Z,11.02
2023-03-06T12:03:09.346Z,10.60
2023-03-06T12:05:46.657Z,11.80
2023-03-06T12:08:38.841Z,10.55
2023-03-06T12:11:13.055Z,9.90
2023-03-06T12:13:46.072Z,7.03
2023-03-06T12:16:24.365Z,6.38
2023-03-06T12:19:01.200Z,6.47
2023-03-06T12:21:34.626Z,5.88
2023-03-06T12:24:08.387Z,5.03
2023-03-06T12:27:07.681Z,3.90
2023-03-06T12:29:44.610Z,3.85
2023-03-06T12:32:21.996Z,4.57
2023-03-06T12:35:08.994Z,4.28
2023-03-06T12:37:46.375Z,5.30
2023-03-06T12:40:22.306Z,4.57
2023-03-06T12:43:02.719Z,4.88
2023-03-06T12:45:35.198Z,4.95
2023-03-06T12:48:02.766Z,5.32
2023-03-06T12:50:33.169Z,5.30
2023-03-06T12:53:03.136Z,5.57
2023-03-06T12:55:38.658Z,5.15
2023-03-06T12:58:24.786Z,4.95
2023-03-06T13:01:04.201Z,4.97
2023-03-06T13:03:39.224Z,5.75
2023-03-06T13:06:29.799Z,8.18
2023-03-06T13:09:18.439Z,7.35
2023-03-06T13:14:23.515Z,7.75
2023-03-06T13:16:51.044Z,9.02
2023-03-06T13:19:19.633Z,10.50
2023-03-06T13:22:02.273Z,12.48
2023-03-06T13:24:31.803Z,14.15
2023-03-06T13:27:03.555Z,14.55
2023-03-06T13:30:01.064Z,15.80
2023-03-06T13:34:55.959Z,11.98
2023-03-06T13:37:48.314Z,8.73
2023-03-06T13:40:31.317Z,7.43
2023-03-06T13:43:04.028Z,8.50
2023-03-06T13:45:33.556Z,7.70
2023-03-06T13:48:37.481Z,5.38
2023-03-06T13:50:49.485Z,5.18
2023-03-06T13:55:50.304Z,4.70
2023-03-06T13:58:25.825Z,5.07
2023-03-06T14:01:03.299Z,4.80
2023-03-06T14:03:37.723Z,4.53
2023-03-06T14:06:20.011Z,4.60
2023-03-06T14:08:47.423Z,4.45
2023-03-06T14:11:19.982Z,4.18
2023-03-06T14:13:50.294Z,3.70
2023-03-06T14:16:20.148Z,3.78
2023-03-06T14:18:48.833Z,3.70
2023-03-06T14:21:22.296Z,2.95
2023-03-06T14:24:00.052Z,2.67
2023-03-06T14:26:31.202Z,2.38
2023-03-06T14:28:59.285Z,2.30
2023-03-06T14:31:28.521Z,2.20
2023-03-06T14:33:57.104Z,2.60
2023-03-06T14:36:26.809Z,2.70
2023-03-06T14:38:54.894Z,2.40
2023-03-06T14:41:26.562Z,2.50
2023-03-06T14:44:07.798Z,2.80
2023-03-06T14:46:35.235Z,2.50
2023-03-06T14:49:06.963Z,2.63
2023-03-06T14:51:37.713Z,2.40
2023-03-06T14:54:05.282Z,3.58
2023-03-06T14:56:35.316Z,2.05
2023-03-06T14:59:04.963Z,2.30
2023-03-06T15:01:34.967Z,2.67
2023-03-06T15:04:02.613Z,2.45
2023-03-06T15:06:33.085Z,2.70
2023-03-06T15:09:01.762Z,2.35
2023-03-06T15:11:44.005Z,2.55
2023-03-06T15:14:18.239Z,2.88
2023-03-06T15:16:45.654Z,2.20
2023-03-06T15:19:17.613Z,2.17
2023-03-06T15:21:47.284Z,2.10
2023-03-06T15:24:29.830Z,2.28
2023-03-06T15:26:59.144Z,1.50
2023-03-06T15:29:28.228Z,1.85
2023-03-06T15:32:10.543Z,1.60
2023-03-06T15:34:38.109Z,1.85
2023-03-06T15:37:25.477Z,1.75
2023-03-06T15:40:03.773Z,1.58
2023-03-06T15:42:34.907Z,1.80
2023-03-06T15:45:13.313Z,1.73
2023-03-06T15:47:40.847Z,1.50
2023-03-06T15:50:14.121Z,1.67
2023-03-06T15:52:41.514Z,1.50
2023-03-06T15:55:09.745Z,1.63
2023-03-06T15:57:37.223Z,2.10
2023-03-06T16:00:21.700Z,1.38
2023-03-06T16:02:54.130Z,2.22
2023-03-06T16:05:21.983Z,2.15
2023-03-06T16:10:17.935Z,1.70
2023-03-06T16:12:47.547Z,1.92
2023-03-06T16:15:21.642Z,1.48
2023-03-06T16:17:50.039Z,5.28
2023-03-06T16:20:18.274Z,1.90
2023-03-06T16:22:46.246Z,2.13
2023-03-06T16:25:14.772Z,2.03
2023-03-06T16:27:42.619Z,10.48
2023-03-06T16:30:14.896Z,14.70
2023-03-06T16:32:44.856Z,17.63
2023-03-06T16:35:12.885Z,17.90
2023-03-06T16:40:15.949Z,18.35
2023-03-06T16:42:43.309Z,19.98
2023-03-06T16:45:11.500Z,21.00
2023-03-06T16:47:38.925Z,19.90
2023-03-06T16:50:08.285Z,19.77
2023-03-06T16:52:35.657Z,17.73
2023-03-06T16:55:03.010Z,18.63
2023-03-06T16:57:35.476Z,17.38
2023-03-06T17:00:02.966Z,17.85
2023-03-06T17:02:30.348Z,17.45
2023-03-06T17:04:57.883Z,17.73
2023-03-06T17:07:26.638Z,16.48
2023-03-06T17:09:54.015Z,16.63
2023-03-06T17:12:21.380Z,16.42
2023-03-06T17:14:48.762Z,16.30
2023-03-06T17:17:16.350Z,17.08
2023-03-06T17:19:47.040Z,16.63
2023-03-06T17:22:14.642Z,18.38
2023-03-06T17:24:43.365Z,17.63
2023-03-06T17:27:10.787Z,18.58
2023-03-06T17:29:38.216Z,18.23
2023-03-06T17:32:05.687Z,19.65
2023-03-06T17:34:33.096Z,20.67
2023-03-06T17:37:01.323Z,19.77
2023-03-06T17:39:32.076Z,19.67
2023-03-06T17:42:01.119Z,22.00
2023-03-06T17:44:28.452Z,22.55
2023-03-06T17:46:55.829Z,21.75
2023-03-06T17:49:23.225Z,22.30
2023-03-06T17:51:50.583Z,22.77
2023-03-06T17:54:17.986Z,23.88
2023-03-06T17:56:45.668Z,24.30
2023-03-06T17:59:14.474Z,22.65
2023-03-06T18:01:43.314Z,24.27
2023-03-06T18:04:11.304Z,22.50
2023-03-06T18:09:06.251Z,24.48
2023-03-06T18:11:33.728Z,22.17
2023-03-06T18:14:01.093Z,23.35
2023-03-06T18:16:29.821Z,24.50
2023-03-06T18:18:57.693Z,39.08
2023-03-06T18:21:26.215Z,24.80
2023-03-06T18:23:53.674Z,26.23
2023-03-06T18:26:22.205Z,23.33
2023-03-06T18:28:50.019Z,23.88
2023-03-06T18:31:17.889Z,23.50
2023-03-06T18:36:13.878Z,22.48
2023-03-06T18:38:43.773Z,20.92
2023-03-06T18:41:11.174Z,22.55
2023-03-06T18:43:38.814Z,22.73
2023-03-06T18:46:06.786Z,21.60
2023-03-06T18:48:34.182Z,23.85
2023-03-06T18:51:04.520Z,24.70
2023-03-06T18:53:33.216Z,21.75
2023-03-06T18:56:00.595Z,23.60
2023-03-06T18:58:28.004Z,24.42
2023-03-06T19:00:57.137Z,25.10
2023-03-06T19:03:26.334Z,24.63
2023-03-06T19:05:53.697Z,24.52
2023-03-06T19:08:21.103Z,26.85
2023-03-06T19:10:50.335Z,25.52
2023-03-06T19:13:17.786Z,26.20
2023-03-06T19:15:45.864Z,25.58
2023-03-06T19:18:13.255Z,24.90
2023-03-06T19:20:40.643Z,24.88
2023-03-06T19:23:08.039Z,24.50
2023-03-06T19:25:35.773Z,24.60
2023-03-06T19:28:04.769Z,24.95
2023-03-06T19:30:32.190Z,24.23
2023-03-06T19:32:59.575Z,22.73
2023-03-06T19:35:27.636Z,23.35
2023-03-06T19:37:55.029Z,24.13
2023-03-06T19:40:22.443Z,25.35
2023-03-06T19:42:50.198Z,24.42
2023-03-06T19:47:46.148Z,24.27
2023-03-06T19:50:13.510Z,21.05
2023-03-06T19:52:40.934Z,24.33
2023-03-06T19:55:09.660Z,24.10
2023-03-06T19:57:37.029Z,26.10
2023-03-06T20:00:04.814Z,25.48
2023-03-06T20:02:40.206Z,16.90
2023-03-06T20:05:09.453Z,23.35
2023-03-06T20:07:36.821Z,23.15
2023-03-06T20:10:04.611Z,21.55
2023-03-06T20:15:00.493Z,21.42
2023-03-06T20:17:27.844Z,22.17
2023-03-06T20:19:55.467Z,19.75
2023-03-06T20:22:24.223Z,20.85
2023-03-06T20:24:51.591Z,17.45
2023-03-06T20:27:19.197Z,21.10
2023-03-06T20:32:14.237Z,21.58
2023-03-06T20:34:41.697Z,21.92
2023-03-06T20:37:09.854Z,22.20
2023-03-06T20:39:38.616Z,21.23
2023-03-06T20:42:06.074Z,21.85
2023-03-06T20:44:33.561Z,21.13
2023-03-06T20:47:01.001Z,21.08
2023-03-06T20:49:28.367Z,21.30
2023-03-06T20:51:56.549Z,18.15
2023-03-06T20:54:23.976Z,21.73
2023-03-06T20:56:52.684Z,22.00
2023-03-06T20:59:20.068Z,18.98
2023-03-06T21:01:47.933Z,22.40
2023-03-06T21:04:16.026Z,21.70
2023-03-06T21:06:46.164Z,20.55
2023-03-06T21:09:14.146Z,19.83
2023-03-06T21:14:10.730Z,20.02
2023-03-06T21:16:38.110Z,17.75
2023-03-06T21:19:06.052Z,19.40
2023-03-06T21:21:34.477Z,19.65
2023-03-06T21:24:02.289Z,20.20
2023-03-06T21:26:31.339Z,19.15
2023-03-06T21:28:59.116Z,20.95
2023-03-06T21:31:28.237Z,17.33
2023-03-06T21:33:55.837Z,19.27
2023-03-06T21:36:23.627Z,24.95
2023-03-06T21:38:51.502Z,23.00
2023-03-06T21:43:46.168Z,20.45
2023-03-06T21:46:13.624Z,23.20
2023-03-06T21:48:42.409Z,21.08
2023-03-06T21:51:11.041Z,21.58
2023-03-06T21:53:40.858Z,21.92
2023-03-06T21:56:08.786Z,22.02
2023-03-06T22:01:03.530Z,22.63
2023-03-06T22:03:31.002Z,22.75
2023-03-06T22:06:07.258Z,24.23
2023-03-06T22:08:34.658Z,23.33
2023-03-06T22:11:05.376Z,23.75
2023-03-06T22:13:32.736Z,24.90
2023-03-06T22:16:00.106Z,22.02
2023-03-06T22:18:27.491Z,25.00
2023-03-06T22:20:54.890Z,23.25
2023-03-06T22:23:23.607Z,25.80
2023-03-06T22:25:50.965Z,26.55
2023-03-06T22:28:19.262Z,25.90
2023-03-06T22:30:46.736Z,23.02
2023-03-06T22:33:14.134Z,26.08
2023-03-06T22:35:41.565Z,25.63
2023-03-06T22:38:08.929Z,27.42
2023-03-06T22:40:37.653Z,22.98
2023-03-06T22:43:05.035Z,28.20
2023-03-06T22:45:34.752Z,27.08
2023-03-06T22:48:10.655Z,26.45
2023-03-06T22:50:38.610Z,24.40
2023-03-06T22:53:05.974Z,25.38
2023-03-06T22:55:35.200Z,24.52
2023-03-06T22:58:03.967Z,24.63
2023-03-06T23:00:31.319Z,24.67
2023-03-06T23:02:58.683Z,22.90
2023-03-06T23:05:29.091Z,23.85
2023-03-06T23:07:56.788Z,24.40
2023-03-06T23:10:24.144Z,28.00
2023-03-06T23:13:11.469Z,25.75
2023-03-06T23:15:57.625Z,22.35
2023-03-06T23:18:43.662Z,25.63
2023-03-06T23:21:29.954Z,25.77
2023-03-06T23:24:17.061Z,24.98
2023-03-06T23:26:44.424Z,26.58
2023-03-06T23:29:13.142Z,19.83
2023-03-06T23:31:40.589Z,26.55
2023-03-06T23:34:10.702Z,27.35
2023-03-06T23:36:38.077Z,28.48
2023-03-06T23:39:05.453Z,30.88
2023-03-06T23:41:32.842Z,25.13
2023-03-06T23:44:00.226Z,28.98
2023-03-06T23:46:29.028Z,25.30
2023-03-06T23:48:56.464Z,27.85
2023-03-06T23:51:23.893Z,25.98
2023-03-06T23:53:54.713Z,30.55
2023-03-06T23:56:22.175Z,24.15
2023-03-06T23:58:49.527Z,28.50
